BAW250 SCEL-EGLL
Flight info
| Callsign | BAW250 |
|---|---|
| Flight time | N/A |
| Altitude | 34000 |
| Route | DONTI6A DONTI Q802 TENUT UQ802 DOVRI UV200 FAG/N0499F360 UV200 SIRAM UL300 DADKI/N0500F370 UM527 TRAPP DCT 14N055W DCT HIGNZ/M085F390 DCT 23N050W 29N045W 33N040W 36N035W 39N030W 45N020W/M085F410 47N015W DCT TAMEL DCT EVBAK DCT GAPLI/N0489F410 DCT SIDDI DCT DAWLY DCT ELRIP DCT OTMET OTMET1H |
| Aircraft | B789/H-SDE1E2E3FGHIJ2J3J4J5M1RWXY/LB1D1 |
Departure
| Time | 2026-05-07 16:03 |
|---|---|
| Airport | Comodoro Arturo Merino Benítez International Airport (SCEL) |
Arrival
| Time | N/A |
|---|---|
| Airport | London Heathrow Airport (EGLL) |
| Time | Latitude | Longitude | Altitude | Speed | Heading |
|---|---|---|---|---|---|
| 2026-05-07 15:42 | -33.40082 | -70.79797 | 1570 ft | 0 kts | 357° |
| 2026-05-07 15:51 | -33.40084 | -70.79797 | 1570 ft | 1 kts | 357° |
| 2026-05-07 15:51 | -33.40102 | -70.79796 | 1570 ft | 3 kts | 359° |
| 2026-05-07 15:51 | -33.40121 | -70.79795 | 1570 ft | 3 kts | 351° |
| 2026-05-07 15:51 | -33.40140 | -70.79789 | 1570 ft | 3 kts | 326° |
| 2026-05-07 15:52 | -33.40153 | -70.79774 | 1570 ft | 3 kts | 292° |
| 2026-05-07 15:52 | -33.40158 | -70.79751 | 1570 ft | 3 kts | 270° |
| 2026-05-07 15:52 | -33.40157 | -70.79736 | 1570 ft | 0 kts | 267° |
| 2026-05-07 15:54 | -33.40159 | -70.79778 | 1570 ft | 8 kts | 267° |
| 2026-05-07 15:54 | -33.40161 | -70.79842 | 1570 ft | 8 kts | 268° |
| 2026-05-07 15:54 | -33.40164 | -70.79921 | 1570 ft | 10 kts | 267° |
| 2026-05-07 15:55 | -33.40148 | -70.79984 | 1571 ft | 7 kts | 314° |
| 2026-05-07 15:55 | -33.40094 | -70.80008 | 1572 ft | 11 kts | 353° |
| 2026-05-07 15:55 | -33.39992 | -70.80015 | 1572 ft | 17 kts | 357° |
| 2026-05-07 15:55 | -33.39875 | -70.80022 | 1571 ft | 16 kts | 357° |
| 2026-05-07 15:56 | -33.39766 | -70.80030 | 1571 ft | 15 kts | 357° |
| 2026-05-07 15:56 | -33.39643 | -70.80037 | 1571 ft | 20 kts | 357° |
| 2026-05-07 15:56 | -33.39496 | -70.80044 | 1571 ft | 21 kts | 357° |
| 2026-05-07 15:56 | -33.39349 | -70.80053 | 1571 ft | 21 kts | 357° |
| 2026-05-07 15:57 | -33.39205 | -70.80061 | 1571 ft | 22 kts | 357° |
| 2026-05-07 15:57 | -33.39059 | -70.80069 | 1572 ft | 20 kts | 357° |
| 2026-05-07 15:57 | -33.38924 | -70.80077 | 1572 ft | 19 kts | 357° |
| 2026-05-07 15:57 | -33.38767 | -70.80085 | 1572 ft | 25 kts | 357° |
| 2026-05-07 15:58 | -33.38601 | -70.80095 | 1572 ft | 23 kts | 357° |
| 2026-05-07 15:58 | -33.38449 | -70.80103 | 1572 ft | 22 kts | 358° |
| 2026-05-07 15:58 | -33.38297 | -70.80111 | 1571 ft | 23 kts | 358° |
| 2026-05-07 15:58 | -33.38138 | -70.80120 | 1571 ft | 23 kts | 357° |
| 2026-05-07 15:59 | -33.37984 | -70.80128 | 1571 ft | 21 kts | 358° |
| 2026-05-07 15:59 | -33.37840 | -70.80135 | 1571 ft | 20 kts | 358° |
| 2026-05-07 15:59 | -33.37700 | -70.80143 | 1572 ft | 21 kts | 358° |
| 2026-05-07 15:59 | -33.37554 | -70.80150 | 1574 ft | 20 kts | 357° |
| 2026-05-07 16:00 | -33.37417 | -70.80160 | 1574 ft | 19 kts | 356° |
| 2026-05-07 16:00 | -33.37291 | -70.80164 | 1575 ft | 18 kts | 358° |
| 2026-05-07 16:00 | -33.37173 | -70.80171 | 1574 ft | 14 kts | 351° |
| 2026-05-07 16:00 | -33.37112 | -70.80236 | 1576 ft | 10 kts | 290° |
| 2026-05-07 16:01 | -33.37110 | -70.80299 | 1580 ft | 6 kts | 261° |
| 2026-05-07 16:01 | -33.37132 | -70.80350 | 1581 ft | 11 kts | 230° |
| 2026-05-07 16:01 | -33.37201 | -70.80375 | 1580 ft | 10 kts | 175° |
| 2026-05-07 16:01 | -33.37230 | -70.80373 | 1579 ft | 0 kts | 178° |
| 2026-05-07 16:02 | -33.37258 | -70.80371 | 1579 ft | 15 kts | 178° |
| 2026-05-07 16:02 | -33.37557 | -70.80354 | 1580 ft | 74 kts | 177° |
| 2026-05-07 16:02 | -33.38289 | -70.80316 | 1582 ft | 134 kts | 178° |
| 2026-05-07 16:02 | -33.39378 | -70.80263 | 1706 ft | 167 kts | 183° |
| 2026-05-07 16:03 | -33.40576 | -70.80266 | 2270 ft | 177 kts | 180° |
| 2026-05-07 16:03 | -33.41806 | -70.80196 | 3082 ft | 182 kts | 176° |
| 2026-05-07 16:03 | -33.43057 | -70.80046 | 3548 ft | 177 kts | 173° |
| 2026-05-07 16:03 | -33.44361 | -70.79924 | 3627 ft | 198 kts | 178° |
| 2026-05-07 16:04 | -33.45790 | -70.79887 | 3980 ft | 218 kts | 179° |
| 2026-05-07 16:04 | -33.47357 | -70.79851 | 4535 ft | 229 kts | 178° |
| 2026-05-07 16:04 | -33.48977 | -70.79788 | 5158 ft | 239 kts | 177° |
| 2026-05-07 16:04 | -33.50747 | -70.79682 | 5407 ft | 270 kts | 181° |
| 2026-05-07 16:05 | -33.52502 | -70.80477 | 6130 ft | 271 kts | 221° |
| 2026-05-07 16:05 | -33.53666 | -70.82229 | 7041 ft | 274 kts | 252° |
| 2026-05-07 16:05 | -33.54095 | -70.84426 | 7851 ft | 276 kts | 258° |
| 2026-05-07 16:05 | -33.54485 | -70.86684 | 8714 ft | 278 kts | 257° |
| 2026-05-07 16:06 | -33.54906 | -70.88961 | 9572 ft | 281 kts | 256° |
| 2026-05-07 16:06 | -33.55344 | -70.91264 | 10328 ft | 289 kts | 255° |
| 2026-05-07 16:06 | -33.55806 | -70.93719 | 10520 ft | 315 kts | 255° |
| 2026-05-07 16:06 | -33.56301 | -70.96395 | 10707 ft | 340 kts | 255° |
| 2026-05-07 16:07 | -33.56780 | -70.99176 | 11622 ft | 339 kts | 259° |
| 2026-05-07 16:07 | -33.57151 | -71.01980 | 12454 ft | 342 kts | 257° |
| 2026-05-07 16:07 | -33.57245 | -71.04843 | 13315 ft | 350 kts | 275° |
| 2026-05-07 16:07 | -33.56527 | -71.07667 | 14121 ft | 362 kts | 293° |
| 2026-05-07 16:08 | -33.54996 | -71.10130 | 14768 ft | 378 kts | 313° |
| 2026-05-07 16:08 | -33.52748 | -71.11883 | 15351 ft | 395 kts | 332° |
| 2026-05-07 16:08 | -33.50184 | -71.13188 | 15906 ft | 404 kts | 334° |
| 2026-05-07 16:08 | -33.47527 | -71.14407 | 16488 ft | 412 kts | 334° |
| 2026-05-07 16:09 | -33.44828 | -71.15660 | 17064 ft | 419 kts | 333° |
| 2026-05-07 16:09 | -33.42139 | -71.16976 | 17581 ft | 427 kts | 332° |
| 2026-05-07 16:09 | -33.39369 | -71.18333 | 18243 ft | 432 kts | 332° |
| 2026-05-07 16:09 | -33.36548 | -71.19682 | 18728 ft | 441 kts | 332° |
| 2026-05-07 16:10 | -33.33677 | -71.21045 | 19310 ft | 444 kts | 332° |
| 2026-05-07 16:10 | -33.30801 | -71.22422 | 19919 ft | 447 kts | 331° |
| 2026-05-07 16:10 | -33.27912 | -71.23815 | 20534 ft | 449 kts | 331° |
| 2026-05-07 16:10 | -33.24999 | -71.25213 | 21094 ft | 453 kts | 331° |
| 2026-05-07 16:11 | -33.22062 | -71.26615 | 21663 ft | 457 kts | 331° |
| 2026-05-07 16:11 | -33.19047 | -71.27893 | 22272 ft | 464 kts | 340° |
| 2026-05-07 16:11 | -33.15816 | -71.28487 | 22781 ft | 477 kts | 353° |
| 2026-05-07 16:11 | -33.12471 | -71.28301 | 23278 ft | 488 kts | 6° |
| 2026-05-07 16:12 | -33.09153 | -71.27277 | 23748 ft | 497 kts | 21° |
| 2026-05-07 16:12 | -33.06001 | -71.25547 | 24159 ft | 501 kts | 25° |
| 2026-05-07 16:12 | -33.02864 | -71.23697 | 24601 ft | 503 kts | 26° |
| 2026-05-07 16:12 | -32.99731 | -71.21796 | 24980 ft | 507 kts | 26° |
| 2026-05-07 16:13 | -32.96536 | -71.20140 | 25369 ft | 508 kts | 15° |
| 2026-05-07 16:13 | -32.93094 | -71.19240 | 25733 ft | 507 kts | 2° |
| 2026-05-07 16:13 | -32.89590 | -71.19105 | 26153 ft | 503 kts | 354° |
| 2026-05-07 16:13 | -32.86072 | -71.19164 | 26507 ft | 507 kts | 354° |
| 2026-05-07 16:14 | -32.82537 | -71.19238 | 26905 ft | 510 kts | 353° |
| 2026-05-07 16:14 | -32.78979 | -71.19318 | 27264 ft | 514 kts | 354° |
| 2026-05-07 16:14 | -32.75403 | -71.19380 | 27743 ft | 515 kts | 354° |
| 2026-05-07 16:14 | -32.71809 | -71.19437 | 28093 ft | 518 kts | 354° |
| 2026-05-07 16:15 | -32.68189 | -71.19506 | 28454 ft | 521 kts | 354° |
| 2026-05-07 16:15 | -32.64552 | -71.19576 | 28848 ft | 524 kts | 354° |
| 2026-05-07 16:15 | -32.60884 | -71.19642 | 29290 ft | 526 kts | 354° |
| 2026-05-07 16:15 | -32.57205 | -71.19707 | 29612 ft | 530 kts | 354° |
| 2026-05-07 16:16 | -32.53502 | -71.19775 | 30034 ft | 532 kts | 353° |
| 2026-05-07 16:16 | -32.49826 | -71.19844 | 30322 ft | 535 kts | 354° |
| 2026-05-07 16:16 | -32.46094 | -71.19910 | 30701 ft | 536 kts | 353° |
| 2026-05-07 16:16 | -32.42353 | -71.19978 | 31012 ft | 538 kts | 353° |
| 2026-05-07 16:17 | -32.38603 | -71.20047 | 31326 ft | 540 kts | 353° |
| 2026-05-07 16:17 | -32.34826 | -71.20042 | 31549 ft | 545 kts | 356° |
| 2026-05-07 16:17 | -32.31023 | -71.19728 | 31887 ft | 547 kts | 358° |
| 2026-05-07 16:17 | -32.27239 | -71.19747 | 32193 ft | 542 kts | 351° |
| 2026-05-07 16:18 | -32.23472 | -71.20094 | 32474 ft | 542 kts | 348° |
| 2026-05-07 16:18 | -32.19703 | -71.20495 | 32770 ft | 546 kts | 351° |
| 2026-05-07 16:18 | -32.15936 | -71.20629 | 33132 ft | 550 kts | 355° |
| 2026-05-07 16:18 | -32.12088 | -71.20532 | 33391 ft | 554 kts | 356° |
| 2026-05-07 16:19 | -32.08241 | -71.20490 | 33683 ft | 553 kts | 353° |
| 2026-05-07 16:19 | -32.04397 | -71.20645 | 33896 ft | 554 kts | 352° |
| 2026-05-07 16:19 | -32.00532 | -71.20802 | 34226 ft | 556 kts | 353° |
| 2026-05-07 16:20 | -31.92753 | -71.20837 | 34211 ft | 557 kts | 353° |
| 2026-05-07 16:20 | -31.85033 | -71.21033 | 34204 ft | 553 kts | 353° |
| 2026-05-07 16:21 | -31.77349 | -71.21098 | 34196 ft | 553 kts | 358° |
| 2026-05-07 16:21 | -31.69649 | -71.20622 | 34217 ft | 553 kts | 357° |
| 2026-05-07 16:22 | -31.62047 | -71.20163 | 34200 ft | 549 kts | 357° |
| 2026-05-07 16:22 | -31.54422 | -71.19700 | 34204 ft | 548 kts | 357° |
| 2026-05-07 16:23 | -31.46806 | -71.19240 | 34192 ft | 546 kts | 357° |
| 2026-05-07 16:23 | -31.39235 | -71.18781 | 34202 ft | 544 kts | 357° |
| 2026-05-07 16:24 | -31.31686 | -71.18327 | 34187 ft | 542 kts | 356° |
| 2026-05-07 16:24 | -31.24153 | -71.17874 | 34188 ft | 542 kts | 357° |
| 2026-05-07 16:25 | -31.16669 | -71.17424 | 34175 ft | 541 kts | 357° |
| 2026-05-07 16:25 | -31.09143 | -71.16971 | 34161 ft | 541 kts | 357° |
| 2026-05-07 16:26 | -31.01649 | -71.16523 | 34154 ft | 538 kts | 356° |
| 2026-05-07 16:26 | -30.94160 | -71.16074 | 34155 ft | 538 kts | 357° |
| 2026-05-07 16:27 | -30.86688 | -71.15616 | 34145 ft | 537 kts | 357° |
| 2026-05-07 16:27 | -30.79229 | -71.15165 | 34150 ft | 536 kts | 356° |
| 2026-05-07 16:28 | -30.71794 | -71.14719 | 34143 ft | 534 kts | 356° |
| 2026-05-07 16:28 | -30.64419 | -71.14279 | 34147 ft | 533 kts | 356° |
| 2026-05-07 16:29 | -30.57017 | -71.13837 | 34135 ft | 532 kts | 356° |
| 2026-05-07 16:29 | -30.49625 | -71.13396 | 34142 ft | 531 kts | 356° |
| 2026-05-07 16:30 | -30.42248 | -71.12958 | 34134 ft | 530 kts | 356° |
| 2026-05-07 16:30 | -30.34878 | -71.12528 | 34131 ft | 529 kts | 356° |
| 2026-05-07 16:31 | -30.27530 | -71.12101 | 34124 ft | 528 kts | 356° |
| 2026-05-07 16:31 | -30.20190 | -71.11442 | 34138 ft | 529 kts | 359° |
| 2026-05-07 16:32 | -30.12851 | -71.10689 | 34146 ft | 528 kts | 359° |
| 2026-05-07 16:32 | -30.05586 | -71.09886 | 34144 ft | 526 kts | 358° |
| 2026-05-07 16:33 | -29.98305 | -71.09115 | 34149 ft | 525 kts | 358° |
| 2026-05-07 16:33 | -29.92260 | -71.08462 | 34151 ft | 524 kts | 358° |
| 2026-05-07 16:34 | -29.85005 | -71.07686 | 34143 ft | 523 kts | 358° |
| 2026-05-07 16:34 | -29.77755 | -71.06909 | 34142 ft | 522 kts | 358° |
| 2026-05-07 16:35 | -29.70547 | -71.06138 | 34132 ft | 519 kts | 358° |
| 2026-05-07 16:35 | -29.63365 | -71.05373 | 34124 ft | 517 kts | 357° |
| 2026-05-07 16:36 | -29.56214 | -71.04619 | 33928 ft | 516 kts | 4° |
| 2026-05-07 16:36 | -29.48971 | -71.03836 | 34096 ft | 531 kts | 4° |
| 2026-05-07 16:37 | -29.41543 | -71.02835 | 34121 ft | 548 kts | 7° |
| 2026-05-07 16:37 | -29.33853 | -71.01689 | 34132 ft | 565 kts | 7° |
| 2026-05-07 16:38 | -29.25947 | -71.00487 | 34121 ft | 579 kts | 2° |
| 2026-05-07 16:38 | -29.17893 | -70.99748 | 34111 ft | 581 kts | 4° |
| 2026-05-07 16:39 | -29.09849 | -70.98974 | 34106 ft | 579 kts | 3° |
| 2026-05-07 16:39 | -29.01797 | -70.98232 | 34091 ft | 579 kts | 4° |
| 2026-05-07 16:40 | -28.93775 | -70.97469 | 34082 ft | 578 kts | 3° |
| 2026-05-07 16:40 | -28.85770 | -70.96728 | 34074 ft | 577 kts | 3° |
| 2026-05-07 16:41 | -28.77820 | -70.95979 | 34068 ft | 576 kts | 3° |
| 2026-05-07 16:41 | -28.69840 | -70.95237 | 34064 ft | 574 kts | 3° |
| 2026-05-07 16:42 | -28.61863 | -70.94492 | 34058 ft | 575 kts | 3° |
| 2026-05-07 16:42 | -28.53891 | -70.93751 | 34050 ft | 574 kts | 3° |
| 2026-05-07 16:43 | -28.45933 | -70.92992 | 34047 ft | 573 kts | 4° |
| 2026-05-07 16:43 | -28.38009 | -70.92129 | 34050 ft | 571 kts | 4° |
| 2026-05-07 16:44 | -28.30145 | -70.91339 | 34052 ft | 571 kts | 4° |
| 2026-05-07 16:44 | -28.22230 | -70.90496 | 34098 ft | 570 kts | 4° |
| 2026-05-07 16:45 | -28.14318 | -70.89649 | 34082 ft | 571 kts | 4° |
| 2026-05-07 16:45 | -28.06402 | -70.88810 | 34074 ft | 571 kts | 4° |
| 2026-05-07 16:46 | -27.98498 | -70.87967 | 34072 ft | 570 kts | 4° |
| 2026-05-07 16:46 | -27.90595 | -70.87131 | 34062 ft | 570 kts | 4° |
| 2026-05-07 16:47 | -27.82749 | -70.86298 | 34076 ft | 570 kts | 4° |
| 2026-05-07 16:47 | -27.74838 | -70.85462 | 34070 ft | 569 kts | 4° |
| 2026-05-07 16:48 | -27.66953 | -70.84628 | 34073 ft | 569 kts | 4° |
| 2026-05-07 16:48 | -27.59070 | -70.83797 | 34075 ft | 569 kts | 4° |
| 2026-05-07 16:49 | -27.51188 | -70.82966 | 34070 ft | 568 kts | 4° |
| 2026-05-07 16:49 | -27.43314 | -70.82138 | 34066 ft | 568 kts | 4° |
| 2026-05-07 16:50 | -27.35492 | -70.81316 | 34064 ft | 567 kts | 4° |
| 2026-05-07 16:50 | -27.27622 | -70.80490 | 34057 ft | 567 kts | 4° |
| 2026-05-07 16:51 | -27.19763 | -70.79667 | 34063 ft | 567 kts | 4° |
| 2026-05-07 16:51 | -27.11878 | -70.78842 | 34060 ft | 568 kts | 4° |
| 2026-05-07 16:52 | -27.04052 | -70.78025 | 34056 ft | 568 kts | 4° |
| 2026-05-07 16:52 | -26.96199 | -70.77205 | 34057 ft | 566 kts | 4° |
| 2026-05-07 16:53 | -26.88363 | -70.76389 | 34070 ft | 565 kts | 4° |
| 2026-05-07 16:53 | -26.80518 | -70.75574 | 34059 ft | 565 kts | 4° |
| 2026-05-07 16:54 | -26.72681 | -70.74759 | 34058 ft | 565 kts | 3° |
| 2026-05-07 16:54 | -26.69045 | -70.74332 | 34048 ft | 510 kts | 354° |
| 2026-05-07 16:54 | -26.65573 | -70.73897 | 34070 ft | 499 kts | 358° |
| 2026-05-07 16:54 | -26.62192 | -70.73325 | 34046 ft | 483 kts | 356° |
| 2026-05-07 16:55 | -26.58939 | -70.72805 | 34060 ft | 477 kts | 357° |
| 2026-05-07 16:55 | -26.52292 | -70.71672 | 34064 ft | 489 kts | 358° |
| 2026-05-07 16:56 | -26.45545 | -70.70512 | 34063 ft | 489 kts | 357° |
| 2026-05-07 16:56 | -26.35502 | -70.69555 | 34064 ft | 482 kts | 354° |
| 2026-05-07 16:57 | -26.28810 | -70.68966 | 34056 ft | 481 kts | 354° |
| 2026-05-07 16:57 | -26.22150 | -70.68381 | 34050 ft | 479 kts | 354° |
| 2026-05-07 16:58 | -26.15509 | -70.67798 | 34053 ft | 478 kts | 354° |
| 2026-05-07 16:58 | -26.08901 | -70.67217 | 34051 ft | 475 kts | 354° |
| 2026-05-07 16:59 | -26.02357 | -70.66644 | 34051 ft | 473 kts | 354° |
| 2026-05-07 16:59 | -25.95809 | -70.66070 | 34051 ft | 471 kts | 354° |
| 2026-05-07 17:00 | -25.89268 | -70.65499 | 34052 ft | 470 kts | 354° |
| 2026-05-07 17:00 | -25.82750 | -70.64929 | 34051 ft | 468 kts | 354° |
| 2026-05-07 17:01 | -25.76250 | -70.64363 | 34041 ft | 468 kts | 354° |
| 2026-05-07 17:01 | -25.69823 | -70.63800 | 34043 ft | 464 kts | 354° |
| 2026-05-07 17:02 | -25.63370 | -70.63244 | 34049 ft | 467 kts | 354° |
| 2026-05-07 17:02 | -25.56856 | -70.62674 | 34055 ft | 470 kts | 355° |
| 2026-05-07 17:03 | -25.50341 | -70.62108 | 34053 ft | 469 kts | 355° |
| 2026-05-07 17:03 | -25.43819 | -70.61543 | 34051 ft | 471 kts | 355° |
| 2026-05-07 17:04 | -25.37289 | -70.60977 | 34054 ft | 471 kts | 355° |
| 2026-05-07 17:04 | -25.30773 | -70.60416 | 34055 ft | 472 kts | 355° |
| 2026-05-07 17:05 | -25.24218 | -70.59848 | 34056 ft | 472 kts | 355° |
| 2026-05-07 17:05 | -25.17637 | -70.59285 | 34048 ft | 476 kts | 355° |
| 2026-05-07 17:06 | -25.11019 | -70.58712 | 34062 ft | 477 kts | 355° |
| 2026-05-07 17:06 | -25.04376 | -70.58143 | 34056 ft | 479 kts | 356° |
| 2026-05-07 17:07 | -24.97714 | -70.57568 | 34046 ft | 479 kts | 356° |
| 2026-05-07 17:07 | -24.91084 | -70.57002 | 34054 ft | 481 kts | 356° |
| 2026-05-07 17:08 | -24.84397 | -70.56427 | 34059 ft | 481 kts | 356° |
| 2026-05-07 17:08 | -24.77699 | -70.55856 | 34054 ft | 483 kts | 356° |
| 2026-05-07 17:09 | -24.70983 | -70.55281 | 34060 ft | 484 kts | 356° |
| 2026-05-07 17:09 | -24.64245 | -70.54707 | 34059 ft | 486 kts | 356° |
| 2026-05-07 17:10 | -24.57538 | -70.54134 | 34062 ft | 486 kts | 356° |
| 2026-05-07 17:10 | -24.50800 | -70.53562 | 34053 ft | 485 kts | 356° |
| 2026-05-07 17:11 | -24.44069 | -70.52990 | 34051 ft | 487 kts | 356° |
| 2026-05-07 17:11 | -24.37277 | -70.52413 | 34049 ft | 489 kts | 356° |
| 2026-05-07 17:12 | -24.30493 | -70.51836 | 34050 ft | 489 kts | 356° |
| 2026-05-07 17:12 | -24.23710 | -70.51263 | 34042 ft | 489 kts | 356° |
| 2026-05-07 17:13 | -24.16921 | -70.50686 | 34039 ft | 489 kts | 356° |
| 2026-05-07 17:13 | -24.10126 | -70.50114 | 34043 ft | 490 kts | 357° |
| 2026-05-07 17:14 | -24.03373 | -70.49542 | 34036 ft | 490 kts | 357° |
| 2026-05-07 17:14 | -23.96560 | -70.48968 | 34046 ft | 490 kts | 357° |
| 2026-05-07 17:15 | -23.89756 | -70.48394 | 34034 ft | 490 kts | 357° |
| 2026-05-07 17:15 | -23.82936 | -70.47820 | 34034 ft | 491 kts | 357° |
| 2026-05-07 17:16 | -23.76170 | -70.47250 | 34054 ft | 490 kts | 357° |
| 2026-05-07 17:16 | -23.69298 | -70.46679 | 34039 ft | 503 kts | 1° |
| 2026-05-07 17:17 | -23.62196 | -70.46076 | 34048 ft | 519 kts | 1° |
| 2026-05-07 17:17 | -23.54953 | -70.45472 | 34045 ft | 523 kts | 1° |
| 2026-05-07 17:18 | -23.47711 | -70.44918 | 34061 ft | 519 kts | 355° |
| 2026-05-07 17:18 | -23.40609 | -70.45936 | 34057 ft | 514 kts | 346° |
| 2026-05-07 17:19 | -23.33606 | -70.47278 | 34054 ft | 513 kts | 346° |
| 2026-05-07 17:19 | -23.26593 | -70.48613 | 34054 ft | 511 kts | 346° |
| 2026-05-07 17:20 | -23.19598 | -70.49946 | 34051 ft | 510 kts | 346° |
| 2026-05-07 17:20 | -23.12610 | -70.51275 | 34049 ft | 509 kts | 346° |
| 2026-05-07 17:21 | -23.05631 | -70.52601 | 34042 ft | 508 kts | 346° |
| 2026-05-07 17:21 | -22.99847 | -70.53700 | 34042 ft | 507 kts | 346° |
| 2026-05-07 17:22 | -22.91769 | -70.55231 | 34042 ft | 506 kts | 345° |
| 2026-05-07 17:22 | -22.85963 | -70.56331 | 34036 ft | 505 kts | 345° |
| 2026-05-07 17:23 | -22.79087 | -70.57633 | 34036 ft | 504 kts | 345° |
| 2026-05-07 17:23 | -22.72183 | -70.58938 | 34040 ft | 503 kts | 344° |
| 2026-05-07 17:24 | -22.65290 | -70.60240 | 34035 ft | 502 kts | 343° |
| 2026-05-07 17:24 | -22.58420 | -70.61537 | 34034 ft | 500 kts | 343° |
| 2026-05-07 17:25 | -22.51560 | -70.62830 | 34033 ft | 500 kts | 343° |
| 2026-05-07 17:25 | -22.44751 | -70.64112 | 34029 ft | 499 kts | 342° |
| 2026-05-07 17:26 | -22.37925 | -70.65397 | 34032 ft | 498 kts | 342° |
| 2026-05-07 17:26 | -22.31100 | -70.66679 | 34029 ft | 496 kts | 342° |
| 2026-05-07 17:27 | -22.24290 | -70.67958 | 34035 ft | 496 kts | 342° |
| 2026-05-07 17:27 | -22.17532 | -70.69225 | 34033 ft | 496 kts | 342° |
| 2026-05-07 17:28 | -22.10744 | -70.70497 | 34032 ft | 495 kts | 342° |
| 2026-05-07 17:28 | -22.03956 | -70.71768 | 34032 ft | 494 kts | 342° |
| 2026-05-07 17:29 | -21.97177 | -70.73036 | 34030 ft | 494 kts | 342° |
| 2026-05-07 17:29 | -21.90265 | -70.73643 | 34052 ft | 509 kts | 357° |
| 2026-05-07 17:30 | -21.86762 | -70.73113 | 34068 ft | 520 kts | 6° |
| 2026-05-07 17:30 | -21.83272 | -70.71968 | 34075 ft | 529 kts | 15° |
| 2026-05-07 17:30 | -21.76417 | -70.69056 | 34045 ft | 529 kts | 15° |
| 2026-05-07 17:31 | -21.69582 | -70.66104 | 34042 ft | 529 kts | 14° |
| 2026-05-07 17:31 | -21.62743 | -70.63189 | 34044 ft | 528 kts | 14° |
| 2026-05-07 17:32 | -21.55910 | -70.60257 | 34041 ft | 528 kts | 14° |
| 2026-05-07 17:32 | -21.49127 | -70.57363 | 34046 ft | 527 kts | 14° |
| 2026-05-07 17:33 | -21.42305 | -70.54448 | 34040 ft | 528 kts | 14° |
| 2026-05-07 17:33 | -21.35489 | -70.51541 | 34040 ft | 527 kts | 14° |
| 2026-05-07 17:34 | -21.28675 | -70.48638 | 34038 ft | 526 kts | 14° |
| 2026-05-07 17:34 | -21.21875 | -70.45744 | 34031 ft | 525 kts | 14° |
| 2026-05-07 17:35 | -21.15078 | -70.42853 | 34029 ft | 525 kts | 14° |
| 2026-05-07 17:35 | -21.08319 | -70.39982 | 34025 ft | 526 kts | 14° |
| 2026-05-07 17:36 | -21.01518 | -70.37095 | 34029 ft | 525 kts | 14° |
| 2026-05-07 17:36 | -20.94722 | -70.34215 | 34026 ft | 525 kts | 14° |
| 2026-05-07 17:37 | -20.87923 | -70.31334 | 34029 ft | 525 kts | 14° |
| 2026-05-07 17:37 | -20.81118 | -70.28455 | 34029 ft | 525 kts | 14° |
| 2026-05-07 17:38 | -20.74362 | -70.25598 | 34036 ft | 525 kts | 14° |
| 2026-05-07 17:38 | -20.67569 | -70.22729 | 34036 ft | 525 kts | 14° |
| 2026-05-07 17:39 | -20.60703 | -70.20323 | 34061 ft | 511 kts | 2° |
| 2026-05-07 17:39 | -20.53755 | -70.20120 | 34065 ft | 491 kts | 344° |
| 2026-05-07 17:40 | -20.47254 | -70.21973 | 34054 ft | 481 kts | 334° |
| 2026-05-07 17:40 | -20.40952 | -70.24297 | 34052 ft | 482 kts | 334° |
| 2026-05-07 17:41 | -20.34612 | -70.26663 | 34051 ft | 483 kts | 334° |
| 2026-05-07 17:41 | -20.28262 | -70.29012 | 34045 ft | 483 kts | 334° |
| 2026-05-07 17:42 | -20.21908 | -70.31371 | 34044 ft | 484 kts | 334° |
| 2026-05-07 17:42 | -20.15534 | -70.33730 | 34037 ft | 484 kts | 334° |
| 2026-05-07 17:43 | -20.09207 | -70.36073 | 34034 ft | 485 kts | 334° |
| 2026-05-07 17:43 | -20.02825 | -70.38431 | 34031 ft | 485 kts | 334° |
| 2026-05-07 17:44 | -19.96428 | -70.40795 | 34028 ft | 486 kts | 334° |
| 2026-05-07 17:44 | -19.90034 | -70.43155 | 34022 ft | 487 kts | 334° |
| 2026-05-07 17:45 | -19.83672 | -70.45501 | 34017 ft | 487 kts | 334° |
| 2026-05-07 17:45 | -19.77272 | -70.47859 | 34019 ft | 487 kts | 334° |
| 2026-05-07 17:46 | -19.70863 | -70.50219 | 34017 ft | 487 kts | 335° |
| 2026-05-07 17:46 | -19.64449 | -70.52578 | 34019 ft | 487 kts | 335° |
| 2026-05-07 17:47 | -19.58032 | -70.54937 | 34021 ft | 488 kts | 335° |
| 2026-05-07 17:47 | -19.51644 | -70.57283 | 34016 ft | 488 kts | 335° |
| 2026-05-07 17:48 | -19.45047 | -70.59103 | 34029 ft | 498 kts | 349° |
| 2026-05-07 17:48 | -19.38048 | -70.58727 | 34043 ft | 513 kts | 7° |
| 2026-05-07 17:49 | -19.31076 | -70.57085 | 34029 ft | 513 kts | 7° |
| 2026-05-07 17:49 | -19.24115 | -70.55397 | 34035 ft | 512 kts | 7° |
| 2026-05-07 17:50 | -19.17156 | -70.53743 | 34036 ft | 512 kts | 7° |
| 2026-05-07 17:50 | -19.10212 | -70.52075 | 34031 ft | 511 kts | 7° |
| 2026-05-07 17:51 | -19.03278 | -70.50421 | 34026 ft | 510 kts | 7° |
| 2026-05-07 17:51 | -18.96406 | -70.48779 | 34021 ft | 508 kts | 7° |
| 2026-05-07 17:52 | -18.89519 | -70.47137 | 34015 ft | 507 kts | 7° |
| 2026-05-07 17:52 | -18.82630 | -70.45495 | 34016 ft | 508 kts | 7° |
| 2026-05-07 17:53 | -18.75715 | -70.43848 | 34017 ft | 509 kts | 7° |
| 2026-05-07 17:53 | -18.68794 | -70.42201 | 34030 ft | 510 kts | 7° |
| 2026-05-07 17:54 | -18.61913 | -70.40564 | 34024 ft | 510 kts | 7° |
| 2026-05-07 17:54 | -18.54984 | -70.38918 | 34019 ft | 509 kts | 7° |
| 2026-05-07 17:55 | -18.48062 | -70.37276 | 34021 ft | 509 kts | 7° |
| 2026-05-07 17:55 | -18.41198 | -70.35650 | 34007 ft | 508 kts | 7° |
| 2026-05-07 17:56 | -18.37725 | -70.35173 | 34036 ft | 500 kts | 356° |
| 2026-05-07 17:56 | -18.34273 | -70.35308 | 34037 ft | 494 kts | 347° |
| 2026-05-07 17:56 | -18.27535 | -70.36665 | 34030 ft | 494 kts | 343° |
| 2026-05-07 17:57 | -18.21943 | -70.37886 | 34030 ft | 494 kts | 343° |
| 2026-05-07 17:57 | -18.14066 | -70.39583 | 34054 ft | 494 kts | 343° |
| 2026-05-07 17:58 | -18.07338 | -70.41038 | 34049 ft | 494 kts | 343° |
| 2026-05-07 17:58 | -18.00602 | -70.42490 | 34047 ft | 494 kts | 343° |
| 2026-05-07 17:59 | -17.93907 | -70.43933 | 34045 ft | 494 kts | 343° |
| 2026-05-07 17:59 | -17.87165 | -70.45385 | 34035 ft | 495 kts | 343° |
| 2026-05-07 18:00 | -17.80418 | -70.46837 | 34025 ft | 496 kts | 343° |
| 2026-05-07 18:00 | -17.73638 | -70.48295 | 34025 ft | 497 kts | 344° |
| 2026-05-07 18:01 | -17.66868 | -70.49749 | 34027 ft | 497 kts | 343° |
| 2026-05-07 18:01 | -17.60087 | -70.51205 | 34033 ft | 498 kts | 344° |
| 2026-05-07 18:02 | -17.49936 | -70.53382 | 34052 ft | 498 kts | 344° |
| 2026-05-07 18:03 | -17.43137 | -70.54839 | 34066 ft | 498 kts | 344° |
| 2026-05-07 18:03 | -17.36340 | -70.56294 | 34072 ft | 498 kts | 344° |
| 2026-05-07 18:04 | -17.29589 | -70.57738 | 34081 ft | 498 kts | 344° |
| 2026-05-07 18:04 | -17.22788 | -70.59192 | 34092 ft | 498 kts | 344° |
| 2026-05-07 18:05 | -17.16000 | -70.60642 | 34100 ft | 498 kts | 344° |
| 2026-05-07 18:05 | -17.09207 | -70.62092 | 34104 ft | 498 kts | 344° |
| 2026-05-07 18:06 | -17.02414 | -70.63541 | 34107 ft | 498 kts | 344° |
| 2026-05-07 18:06 | -16.95619 | -70.64989 | 34107 ft | 499 kts | 344° |
| 2026-05-07 18:07 | -16.88808 | -70.66439 | 34108 ft | 499 kts | 344° |
| 2026-05-07 18:07 | -16.82008 | -70.67887 | 34108 ft | 499 kts | 344° |
| 2026-05-07 18:08 | -16.75244 | -70.69325 | 34101 ft | 499 kts | 344° |
| 2026-05-07 18:08 | -16.68433 | -70.70773 | 34099 ft | 500 kts | 345° |
| 2026-05-07 18:09 | -16.61611 | -70.72221 | 34095 ft | 500 kts | 345° |
| 2026-05-07 18:09 | -16.54796 | -70.73668 | 34091 ft | 500 kts | 345° |
| 2026-05-07 18:10 | -16.47984 | -70.75112 | 34093 ft | 498 kts | 345° |
| 2026-05-07 18:10 | -16.41148 | -70.76563 | 34094 ft | 503 kts | 345° |
| 2026-05-07 18:11 | -16.34291 | -70.78014 | 34093 ft | 502 kts | 345° |
| 2026-05-07 18:11 | -16.27491 | -70.79459 | 34093 ft | 501 kts | 345° |
| 2026-05-07 18:12 | -16.20653 | -70.80908 | 34086 ft | 501 kts | 345° |
| 2026-05-07 18:12 | -16.13809 | -70.82358 | 34082 ft | 502 kts | 345° |
| 2026-05-07 18:13 | -16.06958 | -70.83807 | 34077 ft | 501 kts | 345° |
| 2026-05-07 18:13 | -16.00121 | -70.85254 | 34069 ft | 500 kts | 345° |
| 2026-05-07 18:14 | -15.93341 | -70.86688 | 34072 ft | 501 kts | 345° |
| 2026-05-07 18:14 | -15.86497 | -70.88133 | 34074 ft | 501 kts | 345° |
| 2026-05-07 18:15 | -15.79655 | -70.89577 | 34071 ft | 502 kts | 345° |
| 2026-05-07 18:15 | -15.73966 | -70.90778 | 34078 ft | 502 kts | 345° |
| 2026-05-07 18:16 | -15.67118 | -70.92221 | 34081 ft | 502 kts | 345° |
| 2026-05-07 18:16 | -15.60269 | -70.93664 | 34082 ft | 502 kts | 345° |
| 2026-05-07 18:17 | -15.53423 | -70.95105 | 34083 ft | 502 kts | 345° |
| 2026-05-07 18:17 | -15.46578 | -70.96546 | 34081 ft | 502 kts | 345° |
| 2026-05-07 18:18 | -15.39712 | -70.97989 | 34076 ft | 502 kts | 345° |
| 2026-05-07 18:18 | -15.32900 | -70.99421 | 34073 ft | 502 kts | 345° |
| 2026-05-07 18:19 | -15.26055 | -71.00858 | 34064 ft | 503 kts | 345° |
| 2026-05-07 18:19 | -15.19194 | -71.02297 | 34046 ft | 502 kts | 345° |
| 2026-05-07 18:20 | -15.12340 | -71.03735 | 34057 ft | 502 kts | 345° |
| 2026-05-07 18:20 | -15.05518 | -71.05164 | 34044 ft | 503 kts | 345° |
| 2026-05-07 18:21 | -14.98650 | -71.06601 | 34028 ft | 503 kts | 345° |
| 2026-05-07 18:21 | -14.91782 | -71.08039 | 34020 ft | 503 kts | 345° |
| 2026-05-07 18:22 | -14.84913 | -71.09475 | 34018 ft | 503 kts | 345° |
| 2026-05-07 18:22 | -14.78053 | -71.10908 | 34014 ft | 503 kts | 345° |
| 2026-05-07 18:23 | -14.71185 | -71.12343 | 34014 ft | 503 kts | 345° |
| 2026-05-07 18:23 | -14.64316 | -71.13776 | 34017 ft | 503 kts | 345° |
| 2026-05-07 18:24 | -14.57449 | -71.15208 | 34019 ft | 503 kts | 345° |
| 2026-05-07 18:24 | -14.50625 | -71.16630 | 34024 ft | 504 kts | 345° |
| 2026-05-07 18:25 | -14.43748 | -71.18062 | 34025 ft | 504 kts | 345° |
| 2026-05-07 18:25 | -14.36869 | -71.19494 | 34019 ft | 504 kts | 345° |
| 2026-05-07 18:26 | -14.30005 | -71.20922 | 34019 ft | 503 kts | 345° |
| 2026-05-07 18:26 | -14.23135 | -71.22351 | 34028 ft | 504 kts | 345° |
| 2026-05-07 18:27 | -14.16258 | -71.23779 | 34028 ft | 504 kts | 345° |
| 2026-05-07 18:27 | -14.09381 | -71.25207 | 34035 ft | 504 kts | 345° |
| 2026-05-07 18:28 | -14.02505 | -71.26634 | 34051 ft | 504 kts | 345° |
| 2026-05-07 18:28 | -13.95667 | -71.28052 | 34054 ft | 504 kts | 345° |
| 2026-05-07 18:29 | -13.88784 | -71.29479 | 34056 ft | 504 kts | 345° |
| 2026-05-07 18:29 | -13.81890 | -71.30907 | 34063 ft | 505 kts | 345° |
| 2026-05-07 18:30 | -13.75002 | -71.32332 | 34070 ft | 505 kts | 345° |
| 2026-05-07 18:30 | -13.68105 | -71.33759 | 34072 ft | 505 kts | 345° |
| 2026-05-07 18:31 | -13.61218 | -71.35183 | 34079 ft | 505 kts | 345° |
| 2026-05-07 18:31 | -13.54320 | -71.36608 | 34066 ft | 504 kts | 345° |
| 2026-05-07 18:32 | -13.47481 | -71.38025 | 34073 ft | 505 kts | 345° |
| 2026-05-07 18:32 | -13.40586 | -71.39450 | 34069 ft | 504 kts | 345° |
| 2026-05-07 18:33 | -13.33699 | -71.40875 | 34070 ft | 505 kts | 346° |
| 2026-05-07 18:33 | -13.26791 | -71.42301 | 34063 ft | 505 kts | 346° |
| 2026-05-07 18:34 | -13.19896 | -71.43725 | 34055 ft | 505 kts | 346° |
| 2026-05-07 18:34 | -13.13029 | -71.45143 | 34043 ft | 506 kts | 346° |
| 2026-05-07 18:35 | -13.06118 | -71.46568 | 34025 ft | 506 kts | 346° |
| 2026-05-07 18:35 | -12.99207 | -71.47992 | 34004 ft | 506 kts | 346° |
| 2026-05-07 18:36 | -12.92294 | -71.49416 | 33986 ft | 506 kts | 346° |
| 2026-05-07 18:36 | -12.85379 | -71.50840 | 33970 ft | 506 kts | 346° |
| 2026-05-07 18:37 | -12.78522 | -71.52251 | 33963 ft | 506 kts | 346° |
| 2026-05-07 18:37 | -12.71619 | -71.53671 | 33948 ft | 506 kts | 346° |
| 2026-05-07 18:38 | -12.64707 | -71.55091 | 33948 ft | 507 kts | 346° |
| 2026-05-07 18:38 | -12.57780 | -71.56513 | 33938 ft | 508 kts | 346° |
| 2026-05-07 18:39 | -12.50853 | -71.57934 | 33936 ft | 507 kts | 346° |
| 2026-05-07 18:39 | -12.43936 | -71.59352 | 33931 ft | 507 kts | 346° |
| 2026-05-07 18:40 | -12.37056 | -71.60767 | 33928 ft | 508 kts | 346° |
| 2026-05-07 18:40 | -12.30124 | -71.62192 | 33922 ft | 508 kts | 346° |
| 2026-05-07 18:41 | -12.23199 | -71.63615 | 33916 ft | 508 kts | 346° |
| 2026-05-07 18:41 | -12.16262 | -71.65040 | 33904 ft | 508 kts | 346° |
| 2026-05-07 18:42 | -12.09332 | -71.66462 | 33900 ft | 507 kts | 346° |
| 2026-05-07 18:42 | -12.02411 | -71.67882 | 33894 ft | 507 kts | 346° |
| 2026-05-07 18:43 | -11.95531 | -71.69293 | 33889 ft | 507 kts | 346° |
| 2026-05-07 18:43 | -11.88614 | -71.70711 | 33882 ft | 507 kts | 346° |
| 2026-05-07 18:44 | -11.81694 | -71.72128 | 33883 ft | 507 kts | 346° |
| 2026-05-07 18:44 | -11.74771 | -71.73546 | 33880 ft | 507 kts | 346° |
| 2026-05-07 18:45 | -11.67843 | -71.74963 | 33882 ft | 507 kts | 346° |
| 2026-05-07 18:45 | -11.60913 | -71.76381 | 33881 ft | 507 kts | 346° |
| 2026-05-07 18:46 | -11.53985 | -71.77797 | 33882 ft | 508 kts | 346° |
| 2026-05-07 18:46 | -11.48469 | -71.78924 | 33888 ft | 508 kts | 346° |
| 2026-05-07 18:47 | -11.41542 | -71.80339 | 33894 ft | 508 kts | 346° |
| 2026-05-07 18:47 | -11.38070 | -71.81048 | 34143 ft | 508 kts | 346° |
| 2026-05-07 18:47 | -11.34612 | -71.81753 | 34605 ft | 504 kts | 346° |
| 2026-05-07 18:47 | -11.31178 | -71.82453 | 35031 ft | 502 kts | 346° |
| 2026-05-07 18:48 | -11.27758 | -71.83152 | 35446 ft | 500 kts | 346° |
| 2026-05-07 18:48 | -11.24353 | -71.83846 | 35851 ft | 497 kts | 346° |
| 2026-05-07 18:48 | -11.20966 | -71.84537 | 36256 ft | 495 kts | 346° |
| 2026-05-07 18:48 | -11.17592 | -71.85224 | 36656 ft | 493 kts | 346° |
| 2026-05-07 18:49 | -11.14235 | -71.85909 | 37043 ft | 491 kts | 345° |
| 2026-05-07 18:49 | -11.10887 | -71.86591 | 37421 ft | 489 kts | 345° |
| 2026-05-07 18:49 | -11.07557 | -71.87270 | 37789 ft | 487 kts | 345° |
| 2026-05-07 18:49 | -11.04223 | -71.87949 | 37891 ft | 491 kts | 345° |
| 2026-05-07 18:50 | -11.00870 | -71.88632 | 37894 ft | 491 kts | 345° |
| 2026-05-07 18:50 | -10.94211 | -71.89986 | 37902 ft | 485 kts | 345° |
| 2026-05-07 18:51 | -10.87598 | -71.91333 | 37904 ft | 484 kts | 345° |
| 2026-05-07 18:51 | -10.81024 | -71.92669 | 37899 ft | 485 kts | 345° |
| 2026-05-07 18:52 | -10.74393 | -71.94018 | 37900 ft | 485 kts | 345° |
| 2026-05-07 18:52 | -10.67762 | -71.95365 | 37903 ft | 486 kts | 345° |
| 2026-05-07 18:53 | -10.61111 | -71.96716 | 37905 ft | 486 kts | 345° |
| 2026-05-07 18:53 | -10.54501 | -71.98058 | 37904 ft | 487 kts | 345° |
| 2026-05-07 18:54 | -10.47857 | -71.99406 | 37899 ft | 486 kts | 345° |
| 2026-05-07 18:54 | -10.41225 | -72.00751 | 37896 ft | 486 kts | 345° |
| 2026-05-07 18:55 | -10.34585 | -72.02098 | 37900 ft | 486 kts | 345° |
| 2026-05-07 18:55 | -10.27954 | -72.03441 | 37897 ft | 486 kts | 345° |
| 2026-05-07 18:56 | -10.21328 | -72.04783 | 37898 ft | 485 kts | 345° |
| 2026-05-07 18:56 | -10.14709 | -72.06124 | 37898 ft | 486 kts | 345° |
| 2026-05-07 18:57 | -10.08073 | -72.07467 | 37900 ft | 486 kts | 345° |
| 2026-05-07 18:57 | -10.01435 | -72.08810 | 37901 ft | 487 kts | 345° |
| 2026-05-07 18:58 | -9.94823 | -72.10130 | 37898 ft | 488 kts | 346° |
| 2026-05-07 18:58 | -9.88157 | -72.11444 | 37903 ft | 488 kts | 346° |
| 2026-05-07 18:59 | -9.81499 | -72.12769 | 37901 ft | 488 kts | 346° |
| 2026-05-07 18:59 | -9.74830 | -72.14087 | 37906 ft | 488 kts | 346° |
| 2026-05-07 19:00 | -9.68156 | -72.15410 | 37905 ft | 488 kts | 346° |
| 2026-05-07 19:00 | -9.61471 | -72.16732 | 37903 ft | 489 kts | 346° |
| 2026-05-07 19:01 | -9.54827 | -72.18047 | 37908 ft | 490 kts | 346° |
| 2026-05-07 19:01 | -9.48140 | -72.19350 | 37905 ft | 489 kts | 346° |
| 2026-05-07 19:02 | -9.41454 | -72.20596 | 37901 ft | 488 kts | 346° |
| 2026-05-07 19:02 | -9.34792 | -72.21870 | 37905 ft | 487 kts | 346° |
| 2026-05-07 19:03 | -9.28123 | -72.23127 | 37901 ft | 487 kts | 346° |
| 2026-05-07 19:03 | -9.22582 | -72.24179 | 37900 ft | 487 kts | 346° |
| 2026-05-07 19:04 | -9.15919 | -72.25439 | 37901 ft | 487 kts | 346° |
| 2026-05-07 19:04 | -9.09249 | -72.26702 | 37906 ft | 488 kts | 346° |
| 2026-05-07 19:05 | -9.02558 | -72.27967 | 37909 ft | 488 kts | 346° |
| 2026-05-07 19:05 | -8.95882 | -72.29230 | 37909 ft | 488 kts | 346° |
| 2026-05-07 19:06 | -8.89286 | -72.30601 | 37905 ft | 487 kts | 345° |
| 2026-05-07 19:06 | -8.79307 | -72.32631 | 37904 ft | 488 kts | 345° |
| 2026-05-07 19:07 | -8.72630 | -72.34012 | 37914 ft | 488 kts | 345° |
| 2026-05-07 19:07 | -8.65971 | -72.35370 | 37912 ft | 488 kts | 345° |
| 2026-05-07 19:08 | -8.59317 | -72.36737 | 37910 ft | 488 kts | 346° |
| 2026-05-07 19:08 | -8.52665 | -72.38098 | 37905 ft | 488 kts | 346° |
| 2026-05-07 19:09 | -8.46053 | -72.39452 | 37905 ft | 487 kts | 346° |
| 2026-05-07 19:09 | -8.39400 | -72.40813 | 37915 ft | 488 kts | 346° |
| 2026-05-07 19:10 | -8.32734 | -72.42177 | 37922 ft | 489 kts | 346° |
| 2026-05-07 19:10 | -8.26049 | -72.43544 | 37920 ft | 490 kts | 346° |
| 2026-05-07 19:11 | -8.19369 | -72.44910 | 37915 ft | 490 kts | 346° |
| 2026-05-07 19:11 | -8.12694 | -72.46274 | 37915 ft | 489 kts | 346° |
| 2026-05-07 19:12 | -8.06021 | -72.47636 | 37910 ft | 488 kts | 347° |
| 2026-05-07 19:12 | -8.02635 | -72.47975 | 37944 ft | 491 kts | 358° |
| 2026-05-07 19:12 | -7.99218 | -72.47673 | 37941 ft | 496 kts | 9° |
| 2026-05-07 19:13 | -7.95881 | -72.46728 | 37939 ft | 500 kts | 20° |
| 2026-05-07 19:13 | -7.92755 | -72.45163 | 37937 ft | 503 kts | 30° |
| 2026-05-07 19:13 | -7.86780 | -72.41546 | 37910 ft | 504 kts | 30° |
| 2026-05-07 19:14 | -7.80802 | -72.37866 | 37916 ft | 502 kts | 29° |
| 2026-05-07 19:14 | -7.74810 | -72.34224 | 37920 ft | 502 kts | 29° |
| 2026-05-07 19:15 | -7.68826 | -72.30559 | 37918 ft | 503 kts | 29° |
| 2026-05-07 19:15 | -7.62835 | -72.26908 | 37915 ft | 502 kts | 29° |
| 2026-05-07 19:16 | -7.56856 | -72.23256 | 37919 ft | 502 kts | 29° |
| 2026-05-07 19:16 | -7.50880 | -72.19613 | 37913 ft | 503 kts | 29° |
| 2026-05-07 19:17 | -7.44923 | -72.15980 | 37915 ft | 503 kts | 29° |
| 2026-05-07 19:17 | -7.38920 | -72.12321 | 37910 ft | 503 kts | 29° |
| 2026-05-07 19:18 | -7.32930 | -72.08670 | 37911 ft | 503 kts | 29° |
| 2026-05-07 19:18 | -7.26945 | -72.05024 | 37913 ft | 502 kts | 29° |
| 2026-05-07 19:19 | -7.20953 | -72.01375 | 37914 ft | 503 kts | 29° |
| 2026-05-07 19:19 | -7.18103 | -71.99340 | 37936 ft | 504 kts | 40° |
| 2026-05-07 19:19 | -7.15596 | -71.96861 | 37918 ft | 506 kts | 44° |
| 2026-05-07 19:20 | -7.10681 | -71.91760 | 37916 ft | 507 kts | 44° |
| 2026-05-07 19:20 | -7.05766 | -71.86668 | 37916 ft | 507 kts | 44° |
| 2026-05-07 19:21 | -7.00879 | -71.81607 | 37913 ft | 507 kts | 44° |
| 2026-05-07 19:21 | -6.95960 | -71.76511 | 37917 ft | 507 kts | 44° |
| 2026-05-07 19:22 | -6.91040 | -71.71420 | 37921 ft | 507 kts | 44° |
| 2026-05-07 19:22 | -6.86126 | -71.66334 | 37917 ft | 506 kts | 44° |
| 2026-05-07 19:23 | -6.81218 | -71.61256 | 37913 ft | 506 kts | 44° |
| 2026-05-07 19:23 | -6.76309 | -71.56178 | 37920 ft | 506 kts | 45° |
| 2026-05-07 19:24 | -6.71393 | -71.51097 | 37919 ft | 506 kts | 45° |
| 2026-05-07 19:24 | -6.66487 | -71.46025 | 37919 ft | 506 kts | 45° |
| 2026-05-07 19:25 | -6.61605 | -71.40980 | 37917 ft | 505 kts | 45° |
| 2026-05-07 19:25 | -6.56695 | -71.35915 | 37921 ft | 505 kts | 45° |
| 2026-05-07 19:26 | -6.51781 | -71.30845 | 37917 ft | 505 kts | 45° |
| 2026-05-07 19:26 | -6.46906 | -71.25818 | 37915 ft | 504 kts | 45° |
| 2026-05-07 19:27 | -6.42009 | -71.20770 | 37916 ft | 503 kts | 45° |
| 2026-05-07 19:27 | -6.37119 | -71.15729 | 37915 ft | 504 kts | 45° |
| 2026-05-07 19:28 | -6.32219 | -71.10676 | 37916 ft | 504 kts | 45° |
| 2026-05-07 19:28 | -6.27312 | -71.05619 | 37912 ft | 505 kts | 45° |
| 2026-05-07 19:29 | -6.22398 | -71.00556 | 37914 ft | 506 kts | 45° |
| 2026-05-07 19:29 | -6.17469 | -70.95479 | 37916 ft | 507 kts | 45° |
| 2026-05-07 19:30 | -6.12562 | -70.90425 | 37918 ft | 509 kts | 45° |
| 2026-05-07 19:30 | -6.07618 | -70.85336 | 37911 ft | 509 kts | 45° |
| 2026-05-07 19:31 | -6.02668 | -70.80240 | 37914 ft | 510 kts | 45° |
| 2026-05-07 19:31 | -5.97714 | -70.75143 | 37914 ft | 510 kts | 45° |
| 2026-05-07 19:32 | -5.92754 | -70.70040 | 37920 ft | 510 kts | 45° |
| 2026-05-07 19:32 | -5.87794 | -70.64939 | 37916 ft | 510 kts | 45° |
| 2026-05-07 19:33 | -5.82834 | -70.59839 | 37915 ft | 510 kts | 45° |
| 2026-05-07 19:33 | -5.77873 | -70.54740 | 37918 ft | 510 kts | 45° |
| 2026-05-07 19:34 | -5.72950 | -70.49681 | 37917 ft | 510 kts | 45° |
| 2026-05-07 19:34 | -5.67994 | -70.44590 | 37918 ft | 509 kts | 45° |
| 2026-05-07 19:35 | -5.63037 | -70.39499 | 37915 ft | 509 kts | 45° |
| 2026-05-07 19:35 | -5.58091 | -70.34420 | 37914 ft | 509 kts | 45° |
| 2026-05-07 19:36 | -5.53137 | -70.29334 | 37905 ft | 509 kts | 45° |
| 2026-05-07 19:36 | -5.48182 | -70.24249 | 37902 ft | 509 kts | 45° |
| 2026-05-07 19:37 | -5.43230 | -70.19169 | 37917 ft | 509 kts | 45° |
| 2026-05-07 19:37 | -5.38282 | -70.14093 | 37902 ft | 508 kts | 45° |
| 2026-05-07 19:38 | -5.33367 | -70.09053 | 37907 ft | 508 kts | 45° |
| 2026-05-07 19:38 | -5.28422 | -70.03983 | 37903 ft | 508 kts | 45° |
| 2026-05-07 19:39 | -5.23470 | -69.98908 | 37906 ft | 508 kts | 45° |
| 2026-05-07 19:39 | -5.18532 | -69.93847 | 37910 ft | 508 kts | 45° |
| 2026-05-07 19:40 | -5.13584 | -69.88777 | 37915 ft | 509 kts | 45° |
| 2026-05-07 19:40 | -5.08622 | -69.83695 | 37918 ft | 510 kts | 45° |
| 2026-05-07 19:41 | -5.03648 | -69.78602 | 37915 ft | 511 kts | 45° |
| 2026-05-07 19:41 | -4.98708 | -69.73543 | 37911 ft | 511 kts | 45° |
| 2026-05-07 19:42 | -4.93735 | -69.68454 | 37916 ft | 511 kts | 45° |
| 2026-05-07 19:42 | -4.88750 | -69.63354 | 37913 ft | 511 kts | 45° |
| 2026-05-07 19:43 | -4.83772 | -69.58265 | 37913 ft | 511 kts | 45° |
| 2026-05-07 19:43 | -4.78800 | -69.53181 | 37907 ft | 511 kts | 45° |
| 2026-05-07 19:44 | -4.73824 | -69.48095 | 37907 ft | 510 kts | 45° |
| 2026-05-07 19:44 | -4.68885 | -69.43048 | 37905 ft | 510 kts | 45° |
| 2026-05-07 19:45 | -4.63919 | -69.37972 | 37908 ft | 510 kts | 45° |
| 2026-05-07 19:45 | -4.58954 | -69.32896 | 37908 ft | 510 kts | 45° |
| 2026-05-07 19:46 | -4.53986 | -69.27819 | 37911 ft | 510 kts | 45° |
| 2026-05-07 19:46 | -4.49020 | -69.22745 | 37908 ft | 510 kts | 45° |
| 2026-05-07 19:47 | -4.44050 | -69.17668 | 37911 ft | 510 kts | 45° |
| 2026-05-07 19:47 | -4.39087 | -69.12600 | 37911 ft | 509 kts | 45° |
| 2026-05-07 19:48 | -4.34124 | -69.07533 | 37906 ft | 509 kts | 45° |
| 2026-05-07 19:48 | -4.29157 | -69.02461 | 37905 ft | 509 kts | 45° |
| 2026-05-07 19:49 | -4.28474 | -69.01765 | 37902 ft | 509 kts | 45° |
| 2026-05-07 19:49 | -4.23539 | -68.96728 | 37907 ft | 509 kts | 45° |
| 2026-05-07 19:50 | -4.18573 | -68.91661 | 37911 ft | 509 kts | 45° |
| 2026-05-07 19:50 | -4.13604 | -68.86590 | 37908 ft | 509 kts | 45° |
| 2026-05-07 19:51 | -4.08639 | -68.81526 | 37908 ft | 509 kts | 45° |
| 2026-05-07 19:51 | -4.03676 | -68.76464 | 37903 ft | 509 kts | 45° |
| 2026-05-07 19:52 | -3.99553 | -68.72261 | 37898 ft | 508 kts | 45° |
| 2026-05-07 19:52 | -3.94589 | -68.67209 | 37900 ft | 508 kts | 45° |
| 2026-05-07 19:53 | -3.88823 | -68.61339 | 37903 ft | 508 kts | 45° |
| 2026-05-07 19:53 | -3.84663 | -68.57106 | 37891 ft | 508 kts | 45° |
| 2026-05-07 19:54 | -3.79735 | -68.52091 | 37897 ft | 508 kts | 45° |
| 2026-05-07 19:54 | -3.74782 | -68.47052 | 37893 ft | 507 kts | 45° |
| 2026-05-07 19:55 | -3.69821 | -68.42006 | 37893 ft | 508 kts | 45° |
| 2026-05-07 19:55 | -3.64862 | -68.36962 | 37897 ft | 508 kts | 44° |
| 2026-05-07 19:56 | -3.59933 | -68.31951 | 37899 ft | 508 kts | 45° |
| 2026-05-07 19:56 | -3.54978 | -68.26913 | 37892 ft | 508 kts | 44° |
| 2026-05-07 19:57 | -3.50017 | -68.21869 | 37894 ft | 508 kts | 44° |
| 2026-05-07 19:57 | -3.45045 | -68.16817 | 37899 ft | 509 kts | 44° |
| 2026-05-07 19:58 | -3.40074 | -68.11765 | 37900 ft | 508 kts | 44° |
| 2026-05-07 19:58 | -3.35114 | -68.06726 | 37902 ft | 508 kts | 44° |
| 2026-05-07 19:59 | -3.30152 | -68.01684 | 37893 ft | 508 kts | 44° |
| 2026-05-07 19:59 | -3.25193 | -67.96648 | 37895 ft | 508 kts | 44° |
| 2026-05-07 20:00 | -3.20232 | -67.91609 | 37892 ft | 508 kts | 44° |
| 2026-05-07 20:00 | -3.15268 | -67.86568 | 37888 ft | 508 kts | 44° |
| 2026-05-07 20:01 | -3.10334 | -67.81559 | 37896 ft | 509 kts | 44° |
| 2026-05-07 20:01 | -3.05364 | -67.76514 | 37886 ft | 509 kts | 44° |
| 2026-05-07 20:02 | -3.00378 | -67.71453 | 37888 ft | 510 kts | 44° |
| 2026-05-07 20:02 | -2.95396 | -67.66397 | 37894 ft | 510 kts | 44° |
| 2026-05-07 20:03 | -2.90413 | -67.61341 | 37890 ft | 510 kts | 44° |
| 2026-05-07 20:03 | -2.85432 | -67.56287 | 37892 ft | 510 kts | 44° |
| 2026-05-07 20:04 | -2.80446 | -67.51229 | 37889 ft | 511 kts | 44° |
| 2026-05-07 20:04 | -2.75489 | -67.46201 | 37888 ft | 511 kts | 44° |
| 2026-05-07 20:05 | -2.70475 | -67.41130 | 37893 ft | 512 kts | 44° |
| 2026-05-07 20:05 | -2.65449 | -67.36064 | 37891 ft | 513 kts | 44° |
| 2026-05-07 20:06 | -2.60416 | -67.30979 | 37893 ft | 513 kts | 44° |
| 2026-05-07 20:06 | -2.55382 | -67.25902 | 37891 ft | 514 kts | 44° |
| 2026-05-07 20:07 | -2.50382 | -67.20854 | 37893 ft | 514 kts | 44° |
| 2026-05-07 20:07 | -2.45538 | -67.15598 | 37888 ft | 514 kts | 46° |
| 2026-05-07 20:08 | -2.40660 | -67.10341 | 38084 ft | 516 kts | 47° |
| 2026-05-07 20:08 | -2.38247 | -67.07686 | 38412 ft | 515 kts | 47° |
| 2026-05-07 20:08 | -2.35825 | -67.05047 | 38687 ft | 515 kts | 46° |
| 2026-05-07 20:09 | -2.33393 | -67.02419 | 38891 ft | 516 kts | 46° |
| 2026-05-07 20:09 | -2.30966 | -66.99747 | 38886 ft | 519 kts | 50° |
| 2026-05-07 20:10 | -2.23844 | -66.91736 | 38882 ft | 513 kts | 48° |
| 2026-05-07 20:10 | -2.19146 | -66.86367 | 38880 ft | 512 kts | 48° |
| 2026-05-07 20:11 | -2.14406 | -66.81042 | 38875 ft | 513 kts | 48° |
| 2026-05-07 20:11 | -2.09684 | -66.75689 | 38874 ft | 513 kts | 48° |
| 2026-05-07 20:12 | -2.04951 | -66.70349 | 38875 ft | 514 kts | 48° |
| 2026-05-07 20:12 | -2.00208 | -66.64990 | 38881 ft | 514 kts | 48° |
| 2026-05-07 20:13 | -1.95473 | -66.59646 | 38877 ft | 513 kts | 48° |
| 2026-05-07 20:13 | -1.90731 | -66.54293 | 38875 ft | 513 kts | 48° |
| 2026-05-07 20:14 | -1.85984 | -66.48951 | 38875 ft | 514 kts | 48° |
| 2026-05-07 20:14 | -1.81233 | -66.43611 | 38874 ft | 514 kts | 48° |
| 2026-05-07 20:15 | -1.76515 | -66.38302 | 38873 ft | 514 kts | 48° |
| 2026-05-07 20:15 | -1.71750 | -66.32946 | 38872 ft | 514 kts | 48° |
| 2026-05-07 20:16 | -1.66993 | -66.27596 | 38873 ft | 515 kts | 48° |
| 2026-05-07 20:16 | -1.62234 | -66.22246 | 38878 ft | 514 kts | 48° |
| 2026-05-07 20:17 | -1.57477 | -66.16898 | 38877 ft | 513 kts | 48° |
| 2026-05-07 20:17 | -1.52737 | -66.11570 | 38872 ft | 512 kts | 48° |
| 2026-05-07 20:18 | -1.48007 | -66.06253 | 38866 ft | 511 kts | 48° |
| 2026-05-07 20:18 | -1.43307 | -66.00970 | 38870 ft | 512 kts | 48° |
| 2026-05-07 20:19 | -1.38582 | -65.95660 | 38874 ft | 511 kts | 48° |
| 2026-05-07 20:19 | -1.33844 | -65.90335 | 38872 ft | 513 kts | 48° |
| 2026-05-07 20:20 | -1.29106 | -65.85010 | 38872 ft | 513 kts | 48° |
| 2026-05-07 20:20 | -1.24363 | -65.79681 | 38871 ft | 512 kts | 48° |
| 2026-05-07 20:21 | -1.19626 | -65.74358 | 38871 ft | 512 kts | 48° |
| 2026-05-07 20:21 | -1.14886 | -65.69032 | 38869 ft | 512 kts | 48° |
| 2026-05-07 20:22 | -1.10154 | -65.63715 | 38871 ft | 512 kts | 48° |
| 2026-05-07 20:22 | -1.05423 | -65.58401 | 38870 ft | 512 kts | 48° |
| 2026-05-07 20:23 | -1.00724 | -65.53121 | 38870 ft | 512 kts | 48° |
| 2026-05-07 20:23 | -0.95993 | -65.47808 | 38873 ft | 511 kts | 48° |
| 2026-05-07 20:24 | -0.91263 | -65.42504 | 38871 ft | 511 kts | 48° |
| 2026-05-07 20:24 | -0.86527 | -65.37190 | 38856 ft | 511 kts | 48° |
| 2026-05-07 20:25 | -0.81621 | -65.32064 | 38878 ft | 510 kts | 44° |
| 2026-05-07 20:25 | -0.76566 | -65.27063 | 38877 ft | 512 kts | 44° |
| 2026-05-07 20:26 | -0.71518 | -65.22106 | 38880 ft | 511 kts | 44° |
| 2026-05-07 20:26 | -0.66451 | -65.17114 | 38878 ft | 510 kts | 44° |
| 2026-05-07 20:27 | -0.61395 | -65.12138 | 38876 ft | 510 kts | 44° |
| 2026-05-07 20:27 | -0.56338 | -65.07160 | 38877 ft | 510 kts | 44° |
| 2026-05-07 20:28 | -0.51276 | -65.02177 | 38878 ft | 511 kts | 44° |
| 2026-05-07 20:28 | -0.46236 | -64.97217 | 38879 ft | 512 kts | 44° |
| 2026-05-07 20:29 | -0.41160 | -64.92219 | 38880 ft | 512 kts | 44° |
| 2026-05-07 20:29 | -0.36080 | -64.87220 | 38876 ft | 513 kts | 44° |
| 2026-05-07 20:30 | -0.30997 | -64.82216 | 38875 ft | 513 kts | 44° |
| 2026-05-07 20:30 | -0.25911 | -64.77211 | 38877 ft | 513 kts | 44° |
| 2026-05-07 20:31 | -0.20822 | -64.72202 | 38873 ft | 513 kts | 44° |
| 2026-05-07 20:31 | -0.15758 | -64.67219 | 38871 ft | 514 kts | 44° |
| 2026-05-07 20:32 | -0.10653 | -64.62194 | 38871 ft | 514 kts | 44° |
| 2026-05-07 20:32 | -0.05559 | -64.57180 | 38872 ft | 514 kts | 44° |
| 2026-05-07 20:33 | -0.00461 | -64.52163 | 38874 ft | 514 kts | 44° |
| 2026-05-07 20:33 | 0.04641 | -64.47142 | 38871 ft | 515 kts | 44° |
| 2026-05-07 20:34 | 0.09743 | -64.42129 | 38871 ft | 514 kts | 43° |
| 2026-05-07 20:34 | 0.14880 | -64.37206 | 38863 ft | 514 kts | 43° |
| 2026-05-07 20:35 | 0.20031 | -64.32213 | 38872 ft | 515 kts | 43° |
| 2026-05-07 20:35 | 0.25186 | -64.27244 | 38869 ft | 515 kts | 43° |
| 2026-05-07 20:36 | 0.30343 | -64.22260 | 38867 ft | 515 kts | 43° |
| 2026-05-07 20:36 | 0.35502 | -64.17279 | 38872 ft | 516 kts | 43° |
| 2026-05-07 20:37 | 0.40629 | -64.12327 | 38868 ft | 516 kts | 43° |
| 2026-05-07 20:37 | 0.45799 | -64.07335 | 38868 ft | 516 kts | 43° |
| 2026-05-07 20:38 | 0.50972 | -64.02339 | 38872 ft | 517 kts | 43° |
| 2026-05-07 20:38 | 0.56147 | -63.97340 | 38871 ft | 517 kts | 43° |
| 2026-05-07 20:39 | 0.61317 | -63.92347 | 38872 ft | 517 kts | 43° |
| 2026-05-07 20:39 | 0.66490 | -63.87351 | 38869 ft | 517 kts | 43° |
| 2026-05-07 20:40 | 0.71637 | -63.82380 | 38869 ft | 517 kts | 43° |
| 2026-05-07 20:40 | 0.76812 | -63.77381 | 38876 ft | 518 kts | 43° |
| 2026-05-07 20:41 | 0.82000 | -63.72370 | 38879 ft | 518 kts | 43° |
| 2026-05-07 20:41 | 0.87185 | -63.67361 | 38886 ft | 518 kts | 43° |
| 2026-05-07 20:42 | 0.91495 | -63.63198 | 38890 ft | 519 kts | 43° |
| 2026-05-07 20:42 | 0.96687 | -63.58181 | 38890 ft | 519 kts | 43° |
| 2026-05-07 20:43 | 1.01887 | -63.53158 | 38892 ft | 520 kts | 43° |
| 2026-05-07 20:43 | 1.07074 | -63.48131 | 38889 ft | 520 kts | 43° |
| 2026-05-07 20:44 | 1.12252 | -63.43078 | 38894 ft | 520 kts | 43° |
| 2026-05-07 20:44 | 1.17454 | -63.38025 | 38886 ft | 521 kts | 43° |
| 2026-05-07 20:45 | 1.22616 | -63.33003 | 38885 ft | 520 kts | 42° |
| 2026-05-07 20:45 | 1.27842 | -63.27991 | 38885 ft | 520 kts | 43° |
| 2026-05-07 20:46 | 1.33042 | -63.22966 | 38879 ft | 520 kts | 43° |
| 2026-05-07 20:46 | 1.38255 | -63.17947 | 38875 ft | 520 kts | 42° |
| 2026-05-07 20:47 | 1.43462 | -63.12925 | 38868 ft | 520 kts | 42° |
| 2026-05-07 20:47 | 1.48657 | -63.07917 | 38868 ft | 521 kts | 42° |
| 2026-05-07 20:48 | 1.53881 | -63.02880 | 38868 ft | 521 kts | 42° |
| 2026-05-07 20:48 | 1.59099 | -62.97849 | 38872 ft | 522 kts | 42° |
| 2026-05-07 20:49 | 1.64300 | -62.92833 | 38869 ft | 522 kts | 42° |
| 2026-05-07 20:49 | 1.69535 | -62.87785 | 38870 ft | 523 kts | 42° |
| 2026-05-07 20:50 | 1.74777 | -62.82729 | 38872 ft | 524 kts | 42° |
| 2026-05-07 20:50 | 1.80025 | -62.77667 | 38872 ft | 524 kts | 42° |
| 2026-05-07 20:51 | 1.85273 | -62.72606 | 38880 ft | 525 kts | 42° |
| 2026-05-07 20:51 | 1.90528 | -62.67536 | 38870 ft | 525 kts | 42° |
| 2026-05-07 20:52 | 1.95780 | -62.62469 | 38878 ft | 524 kts | 42° |
| 2026-05-07 20:52 | 2.01027 | -62.57406 | 38880 ft | 524 kts | 42° |
| 2026-05-07 20:53 | 2.06270 | -62.52347 | 38872 ft | 523 kts | 42° |
| 2026-05-07 20:53 | 2.11511 | -62.47289 | 38880 ft | 523 kts | 42° |
| 2026-05-07 20:54 | 2.16713 | -62.42269 | 38872 ft | 523 kts | 42° |
| 2026-05-07 20:54 | 2.21957 | -62.37207 | 38880 ft | 524 kts | 42° |
| 2026-05-07 20:55 | 2.27228 | -62.32171 | 38878 ft | 524 kts | 41° |
| 2026-05-07 20:55 | 2.32501 | -62.27119 | 38866 ft | 524 kts | 42° |
| 2026-05-07 20:56 | 2.37758 | -62.22072 | 38876 ft | 523 kts | 41° |
| 2026-05-07 20:56 | 2.42980 | -62.17067 | 38871 ft | 523 kts | 41° |
| 2026-05-07 20:57 | 2.48224 | -62.12035 | 38876 ft | 522 kts | 41° |
| 2026-05-07 20:57 | 2.53475 | -62.06998 | 38872 ft | 522 kts | 41° |
| 2026-05-07 20:58 | 2.58707 | -62.01977 | 38869 ft | 521 kts | 41° |
| 2026-05-07 20:58 | 2.63940 | -61.96956 | 38865 ft | 521 kts | 41° |
| 2026-05-07 20:59 | 2.69172 | -61.91935 | 38858 ft | 521 kts | 41° |
| 2026-05-07 20:59 | 2.74396 | -61.86920 | 38863 ft | 521 kts | 41° |
| 2026-05-07 21:00 | 2.79591 | -61.81933 | 38865 ft | 520 kts | 41° |
| 2026-05-07 21:00 | 2.84808 | -61.76923 | 38862 ft | 520 kts | 41° |
| 2026-05-07 21:01 | 2.90029 | -61.71907 | 38863 ft | 520 kts | 41° |
| 2026-05-07 21:01 | 2.95255 | -61.66891 | 38852 ft | 519 kts | 41° |
| 2026-05-07 21:02 | 3.00427 | -61.61925 | 38856 ft | 519 kts | 41° |
| 2026-05-07 21:02 | 3.05643 | -61.56916 | 38851 ft | 519 kts | 41° |
| 2026-05-07 21:03 | 3.10861 | -61.51906 | 38854 ft | 519 kts | 41° |
| 2026-05-07 21:03 | 3.16061 | -61.46910 | 38847 ft | 519 kts | 41° |
| 2026-05-07 21:04 | 3.21238 | -61.41936 | 38855 ft | 519 kts | 41° |
| 2026-05-07 21:04 | 3.26445 | -61.36932 | 38845 ft | 518 kts | 41° |
| 2026-05-07 21:05 | 3.31650 | -61.31931 | 38853 ft | 518 kts | 41° |
| 2026-05-07 21:05 | 3.36865 | -61.26918 | 38849 ft | 519 kts | 41° |
| 2026-05-07 21:06 | 3.42073 | -61.21912 | 38842 ft | 519 kts | 41° |
| 2026-05-07 21:06 | 3.47251 | -61.16933 | 38844 ft | 518 kts | 41° |
| 2026-05-07 21:07 | 3.52457 | -61.11926 | 38845 ft | 518 kts | 41° |
| 2026-05-07 21:07 | 3.57660 | -61.06922 | 38842 ft | 518 kts | 41° |
| 2026-05-07 21:08 | 3.62869 | -61.01912 | 38848 ft | 518 kts | 41° |
| 2026-05-07 21:08 | 3.68064 | -60.96895 | 38849 ft | 518 kts | 43° |
| 2026-05-07 21:09 | 3.73123 | -60.91806 | 38850 ft | 518 kts | 43° |
| 2026-05-07 21:09 | 3.78259 | -60.86741 | 38850 ft | 518 kts | 43° |
| 2026-05-07 21:10 | 3.83364 | -60.81656 | 38853 ft | 517 kts | 43° |
| 2026-05-07 21:10 | 3.88478 | -60.76589 | 38845 ft | 516 kts | 42° |
| 2026-05-07 21:11 | 3.93655 | -60.71596 | 38843 ft | 516 kts | 42° |
| 2026-05-07 21:11 | 4.01339 | -60.64113 | 38854 ft | 515 kts | 42° |
| 2026-05-07 21:12 | 4.06485 | -60.59125 | 38858 ft | 515 kts | 42° |
| 2026-05-07 21:12 | 4.11621 | -60.54126 | 38855 ft | 514 kts | 42° |
| 2026-05-07 21:13 | 4.16765 | -60.49131 | 38860 ft | 514 kts | 42° |
| 2026-05-07 21:13 | 4.21898 | -60.44138 | 38872 ft | 514 kts | 42° |
| 2026-05-07 21:14 | 4.27027 | -60.39152 | 38873 ft | 514 kts | 42° |
| 2026-05-07 21:14 | 4.32125 | -60.34194 | 38876 ft | 514 kts | 42° |
| 2026-05-07 21:15 | 4.37288 | -60.29171 | 38878 ft | 513 kts | 42° |
| 2026-05-07 21:15 | 4.42375 | -60.24222 | 38884 ft | 513 kts | 42° |
| 2026-05-07 21:16 | 4.47504 | -60.19230 | 38886 ft | 513 kts | 42° |
| 2026-05-07 21:16 | 4.52625 | -60.14246 | 38901 ft | 513 kts | 42° |
| 2026-05-07 21:17 | 4.57764 | -60.09290 | 38904 ft | 512 kts | 41° |
| 2026-05-07 21:17 | 4.62926 | -60.04374 | 38909 ft | 511 kts | 41° |
| 2026-05-07 21:18 | 4.68027 | -59.99470 | 38917 ft | 510 kts | 41° |
| 2026-05-07 21:18 | 4.73164 | -59.94561 | 38925 ft | 510 kts | 41° |
| 2026-05-07 21:19 | 4.78289 | -59.89644 | 38929 ft | 509 kts | 41° |
| 2026-05-07 21:19 | 4.83420 | -59.84730 | 38938 ft | 509 kts | 41° |
| 2026-05-07 21:20 | 4.88508 | -59.79850 | 38939 ft | 510 kts | 41° |
| 2026-05-07 21:20 | 4.93637 | -59.74934 | 38944 ft | 509 kts | 41° |
| 2026-05-07 21:21 | 4.98754 | -59.70026 | 38941 ft | 509 kts | 41° |
| 2026-05-07 21:21 | 5.03878 | -59.65112 | 38956 ft | 509 kts | 41° |
| 2026-05-07 21:22 | 5.08993 | -59.60203 | 38944 ft | 508 kts | 42° |
| 2026-05-07 21:22 | 5.14106 | -59.55297 | 38940 ft | 509 kts | 42° |
| 2026-05-07 21:23 | 5.19178 | -59.50428 | 38935 ft | 507 kts | 42° |
| 2026-05-07 21:23 | 5.24272 | -59.45539 | 38927 ft | 506 kts | 42° |
| 2026-05-07 21:24 | 5.29370 | -59.40667 | 38929 ft | 506 kts | 42° |
| 2026-05-07 21:24 | 5.34457 | -59.35795 | 38922 ft | 505 kts | 42° |
| 2026-05-07 21:25 | 5.39547 | -59.30924 | 38920 ft | 505 kts | 42° |
| 2026-05-07 21:25 | 5.44633 | -59.26053 | 38921 ft | 505 kts | 42° |
| 2026-05-07 21:26 | 5.49725 | -59.21175 | 38924 ft | 505 kts | 42° |
| 2026-05-07 21:26 | 5.54811 | -59.16303 | 38922 ft | 505 kts | 42° |
| 2026-05-07 21:27 | 5.59885 | -59.11439 | 38922 ft | 504 kts | 42° |
| 2026-05-07 21:27 | 5.64922 | -59.06611 | 38921 ft | 504 kts | 42° |
| 2026-05-07 21:28 | 5.69998 | -59.01745 | 38921 ft | 504 kts | 42° |
| 2026-05-07 21:28 | 5.75076 | -58.96875 | 38920 ft | 504 kts | 42° |
| 2026-05-07 21:29 | 5.80152 | -58.92005 | 38919 ft | 505 kts | 42° |
| 2026-05-07 21:29 | 5.85239 | -58.87124 | 38927 ft | 505 kts | 42° |
| 2026-05-07 21:30 | 5.90297 | -58.82269 | 38925 ft | 505 kts | 42° |
| 2026-05-07 21:30 | 5.95380 | -58.77389 | 38928 ft | 505 kts | 42° |
| 2026-05-07 21:31 | 6.00460 | -58.72511 | 38924 ft | 505 kts | 42° |
| 2026-05-07 21:31 | 6.04680 | -58.68457 | 38921 ft | 506 kts | 42° |
| 2026-05-07 21:32 | 6.09784 | -58.63574 | 38928 ft | 506 kts | 41° |
| 2026-05-07 21:32 | 6.14946 | -58.58749 | 38919 ft | 506 kts | 42° |
| 2026-05-07 21:33 | 6.20067 | -58.53897 | 38926 ft | 506 kts | 42° |
| 2026-05-07 21:33 | 6.25206 | -58.49062 | 38924 ft | 505 kts | 42° |
| 2026-05-07 21:34 | 6.30306 | -58.44244 | 38925 ft | 506 kts | 42° |
| 2026-05-07 21:34 | 6.35443 | -58.39398 | 38924 ft | 506 kts | 42° |
| 2026-05-07 21:35 | 6.40574 | -58.34553 | 38921 ft | 505 kts | 42° |
| 2026-05-07 21:35 | 6.45695 | -58.29719 | 38921 ft | 505 kts | 42° |
| 2026-05-07 21:36 | 6.50859 | -58.24944 | 38925 ft | 502 kts | 38° |
| 2026-05-07 21:36 | 6.56126 | -58.20316 | 38915 ft | 502 kts | 40° |
| 2026-05-07 21:37 | 6.61411 | -58.15701 | 38918 ft | 503 kts | 39° |
| 2026-05-07 21:37 | 6.66667 | -58.11107 | 38942 ft | 504 kts | 40° |
| 2026-05-07 21:38 | 6.71970 | -58.06461 | 38948 ft | 504 kts | 39° |
| 2026-05-07 21:38 | 6.77238 | -58.01855 | 38950 ft | 504 kts | 40° |
| 2026-05-07 21:39 | 6.82565 | -57.97188 | 38948 ft | 505 kts | 40° |
| 2026-05-07 21:39 | 6.87829 | -57.92581 | 38946 ft | 505 kts | 40° |
| 2026-05-07 21:40 | 6.93132 | -57.87934 | 38942 ft | 505 kts | 40° |
| 2026-05-07 21:40 | 6.98450 | -57.83275 | 38937 ft | 506 kts | 40° |
| 2026-05-07 21:41 | 7.03761 | -57.78619 | 38937 ft | 507 kts | 40° |
| 2026-05-07 21:41 | 7.09074 | -57.73960 | 38931 ft | 506 kts | 40° |
| 2026-05-07 21:42 | 7.14386 | -57.69301 | 38933 ft | 506 kts | 40° |
| 2026-05-07 21:42 | 7.19664 | -57.64671 | 38932 ft | 506 kts | 40° |
| 2026-05-07 21:43 | 7.24971 | -57.60013 | 38932 ft | 505 kts | 40° |
| 2026-05-07 21:43 | 7.30274 | -57.55357 | 38934 ft | 506 kts | 40° |
| 2026-05-07 21:44 | 7.35580 | -57.50698 | 38932 ft | 506 kts | 40° |
| 2026-05-07 21:44 | 7.40903 | -57.46058 | 38932 ft | 505 kts | 39° |
| 2026-05-07 21:45 | 7.46226 | -57.41418 | 38939 ft | 506 kts | 40° |
| 2026-05-07 21:45 | 7.51552 | -57.36769 | 38940 ft | 506 kts | 40° |
| 2026-05-07 21:46 | 7.56882 | -57.32120 | 38939 ft | 507 kts | 40° |
| 2026-05-07 21:46 | 7.62208 | -57.27469 | 38941 ft | 507 kts | 40° |
| 2026-05-07 21:47 | 7.67504 | -57.22845 | 38939 ft | 507 kts | 40° |
| 2026-05-07 21:47 | 7.72867 | -57.18160 | 38943 ft | 507 kts | 40° |
| 2026-05-07 21:48 | 7.78161 | -57.13534 | 38939 ft | 506 kts | 40° |
| 2026-05-07 21:48 | 7.83481 | -57.08883 | 38938 ft | 506 kts | 40° |
| 2026-05-07 21:49 | 7.88811 | -57.04223 | 38939 ft | 506 kts | 40° |
| 2026-05-07 21:49 | 7.94133 | -56.99567 | 38945 ft | 506 kts | 40° |
| 2026-05-07 21:50 | 7.99463 | -56.94904 | 38942 ft | 507 kts | 40° |
| 2026-05-07 21:50 | 8.04788 | -56.90243 | 38940 ft | 507 kts | 40° |
| 2026-05-07 21:51 | 8.10115 | -56.85579 | 38938 ft | 507 kts | 40° |
| 2026-05-07 21:51 | 8.15408 | -56.80943 | 38944 ft | 507 kts | 40° |
| 2026-05-07 21:52 | 8.20737 | -56.76273 | 38942 ft | 507 kts | 40° |
| 2026-05-07 21:52 | 8.26063 | -56.71605 | 38939 ft | 507 kts | 40° |
| 2026-05-07 21:53 | 8.31391 | -56.66933 | 38942 ft | 507 kts | 40° |
| 2026-05-07 21:53 | 8.36728 | -56.62251 | 38945 ft | 508 kts | 40° |
| 2026-05-07 21:54 | 8.42068 | -56.57565 | 38944 ft | 508 kts | 40° |
| 2026-05-07 21:54 | 8.47408 | -56.52877 | 38943 ft | 508 kts | 40° |
| 2026-05-07 21:55 | 8.52746 | -56.48190 | 38943 ft | 508 kts | 40° |
| 2026-05-07 21:55 | 8.58085 | -56.43499 | 38942 ft | 508 kts | 40° |
| 2026-05-07 21:56 | 8.63421 | -56.38809 | 38945 ft | 509 kts | 40° |
| 2026-05-07 21:56 | 8.68732 | -56.34140 | 38948 ft | 509 kts | 40° |
| 2026-05-07 21:57 | 8.74077 | -56.29439 | 38947 ft | 509 kts | 40° |
| 2026-05-07 21:57 | 8.79425 | -56.24732 | 38945 ft | 510 kts | 40° |
| 2026-05-07 21:58 | 8.84782 | -56.20017 | 38945 ft | 510 kts | 40° |
| 2026-05-07 21:58 | 8.90132 | -56.15306 | 38950 ft | 510 kts | 40° |
| 2026-05-07 21:59 | 8.95484 | -56.10591 | 38947 ft | 510 kts | 40° |
| 2026-05-07 21:59 | 9.00842 | -56.05869 | 38948 ft | 511 kts | 40° |
| 2026-05-07 22:00 | 9.06265 | -56.01220 | 38956 ft | 509 kts | 31° |
| 2026-05-07 22:00 | 9.09339 | -55.99468 | 38964 ft | 506 kts | 20° |
| 2026-05-07 22:00 | 9.12660 | -55.98337 | 38973 ft | 503 kts | 9° |
| 2026-05-07 22:01 | 9.19518 | -55.96932 | 38946 ft | 502 kts | 8° |
| 2026-05-07 22:01 | 9.26382 | -55.95595 | 38952 ft | 503 kts | 8° |
| 2026-05-07 22:02 | 9.33202 | -55.94224 | 38953 ft | 504 kts | 8° |
| 2026-05-07 22:02 | 9.40091 | -55.92865 | 38952 ft | 504 kts | 8° |
| 2026-05-07 22:03 | 9.46973 | -55.91492 | 38951 ft | 503 kts | 8° |
| 2026-05-07 22:03 | 9.53860 | -55.90125 | 38954 ft | 504 kts | 8° |
| 2026-05-07 22:04 | 9.60747 | -55.88753 | 38956 ft | 504 kts | 8° |
| 2026-05-07 22:04 | 9.67638 | -55.87383 | 38956 ft | 504 kts | 8° |
| 2026-05-07 22:05 | 9.74482 | -55.86020 | 38956 ft | 504 kts | 8° |
| 2026-05-07 22:05 | 9.81355 | -55.84651 | 38958 ft | 503 kts | 8° |
| 2026-05-07 22:06 | 9.88238 | -55.83279 | 38958 ft | 504 kts | 8° |
| 2026-05-07 22:06 | 9.95127 | -55.81906 | 38963 ft | 504 kts | 8° |
| 2026-05-07 22:07 | 10.02010 | -55.80533 | 38963 ft | 504 kts | 8° |
| 2026-05-07 22:07 | 10.08898 | -55.79159 | 38961 ft | 504 kts | 8° |
| 2026-05-07 22:08 | 10.15742 | -55.77793 | 38963 ft | 504 kts | 8° |
| 2026-05-07 22:08 | 10.22627 | -55.76418 | 38965 ft | 504 kts | 8° |
| 2026-05-07 22:09 | 10.29526 | -55.75039 | 38963 ft | 504 kts | 8° |
| 2026-05-07 22:09 | 10.36413 | -55.73663 | 38965 ft | 504 kts | 8° |
| 2026-05-07 22:10 | 10.43253 | -55.72295 | 38964 ft | 503 kts | 8° |
| 2026-05-07 22:10 | 10.50127 | -55.70920 | 38962 ft | 503 kts | 8° |
| 2026-05-07 22:11 | 10.57007 | -55.69543 | 38965 ft | 503 kts | 8° |
| 2026-05-07 22:11 | 10.63868 | -55.68169 | 38964 ft | 502 kts | 8° |
| 2026-05-07 22:12 | 10.70733 | -55.66794 | 38963 ft | 503 kts | 8° |
| 2026-05-07 22:12 | 10.77561 | -55.65425 | 38968 ft | 503 kts | 8° |
| 2026-05-07 22:13 | 10.84439 | -55.64046 | 38971 ft | 503 kts | 8° |
| 2026-05-07 22:13 | 10.91316 | -55.62666 | 38972 ft | 503 kts | 8° |
| 2026-05-07 22:14 | 10.98150 | -55.61294 | 38973 ft | 503 kts | 8° |
| 2026-05-07 22:14 | 11.05024 | -55.59914 | 38974 ft | 503 kts | 8° |
| 2026-05-07 22:15 | 11.11892 | -55.58535 | 38977 ft | 503 kts | 8° |
| 2026-05-07 22:15 | 11.18774 | -55.57151 | 38978 ft | 504 kts | 8° |
| 2026-05-07 22:16 | 11.25653 | -55.55768 | 38977 ft | 504 kts | 8° |
| 2026-05-07 22:16 | 11.32537 | -55.54383 | 38980 ft | 504 kts | 8° |
| 2026-05-07 22:17 | 11.39419 | -55.52998 | 38976 ft | 503 kts | 8° |
| 2026-05-07 22:17 | 11.46246 | -55.51623 | 38977 ft | 503 kts | 8° |
| 2026-05-07 22:18 | 11.56561 | -55.49544 | 38977 ft | 503 kts | 8° |
| 2026-05-07 22:19 | 11.63428 | -55.48160 | 38978 ft | 503 kts | 8° |
| 2026-05-07 22:19 | 11.69184 | -55.46999 | 38979 ft | 503 kts | 8° |
| 2026-05-07 22:20 | 11.76013 | -55.45620 | 38978 ft | 504 kts | 8° |
| 2026-05-07 22:20 | 11.82892 | -55.44231 | 38980 ft | 504 kts | 8° |
| 2026-05-07 22:21 | 11.89768 | -55.42842 | 38981 ft | 504 kts | 8° |
| 2026-05-07 22:21 | 11.96652 | -55.41451 | 38981 ft | 504 kts | 8° |
| 2026-05-07 22:22 | 12.03542 | -55.40057 | 38981 ft | 504 kts | 8° |
| 2026-05-07 22:22 | 12.10430 | -55.38664 | 38985 ft | 505 kts | 8° |
| 2026-05-07 22:23 | 12.17325 | -55.37267 | 38985 ft | 505 kts | 8° |
| 2026-05-07 22:23 | 12.24223 | -55.35871 | 38982 ft | 505 kts | 8° |
| 2026-05-07 22:24 | 12.31123 | -55.34472 | 38986 ft | 505 kts | 8° |
| 2026-05-07 22:24 | 12.37971 | -55.33082 | 39000 ft | 505 kts | 8° |
| 2026-05-07 22:25 | 12.44968 | -55.31666 | 38982 ft | 516 kts | 8° |
| 2026-05-07 22:25 | 12.52027 | -55.30230 | 38991 ft | 517 kts | 8° |
| 2026-05-07 22:26 | 12.59051 | -55.28804 | 38992 ft | 517 kts | 8° |
| 2026-05-07 22:26 | 12.66112 | -55.27369 | 38992 ft | 517 kts | 8° |
| 2026-05-07 22:27 | 12.73162 | -55.25936 | 38991 ft | 517 kts | 8° |
| 2026-05-07 22:27 | 12.80223 | -55.24499 | 38993 ft | 517 kts | 8° |
| 2026-05-07 22:28 | 12.87281 | -55.23062 | 38995 ft | 517 kts | 8° |
| 2026-05-07 22:28 | 12.94346 | -55.21623 | 38995 ft | 517 kts | 7° |
| 2026-05-07 22:29 | 13.01362 | -55.20193 | 38997 ft | 517 kts | 7° |
| 2026-05-07 22:29 | 13.08438 | -55.18750 | 38998 ft | 517 kts | 7° |
| 2026-05-07 22:30 | 13.15496 | -55.17310 | 39002 ft | 518 kts | 7° |
| 2026-05-07 22:30 | 13.22570 | -55.15866 | 39000 ft | 518 kts | 7° |
| 2026-05-07 22:31 | 13.29637 | -55.14422 | 39005 ft | 518 kts | 7° |
| 2026-05-07 22:31 | 13.36712 | -55.12976 | 39006 ft | 518 kts | 7° |
| 2026-05-07 22:32 | 13.43783 | -55.11530 | 38998 ft | 519 kts | 7° |
| 2026-05-07 22:32 | 13.50820 | -55.10090 | 39006 ft | 519 kts | 7° |
| 2026-05-07 22:33 | 13.57908 | -55.08638 | 39005 ft | 519 kts | 7° |
| 2026-05-07 22:33 | 13.65010 | -55.07183 | 39007 ft | 520 kts | 7° |
| 2026-05-07 22:34 | 13.72113 | -55.05727 | 39007 ft | 520 kts | 7° |
| 2026-05-07 22:34 | 13.79221 | -55.04268 | 39007 ft | 520 kts | 7° |
| 2026-05-07 22:35 | 13.86275 | -55.02820 | 39004 ft | 520 kts | 7° |
| 2026-05-07 22:35 | 13.93375 | -55.01362 | 39001 ft | 521 kts | 7° |
| 2026-05-07 22:36 | 14.00484 | -54.99884 | 39005 ft | 522 kts | 11° |
| 2026-05-07 22:36 | 14.07567 | -54.98138 | 39012 ft | 522 kts | 9° |